createdAt,value
2017-08-01T00:01:52.930Z,22.90
2017-08-01T00:04:20.518Z,22.90
2017-08-01T00:06:48.085Z,22.80
2017-08-01T00:09:15.624Z,22.80
2017-08-01T00:11:43.188Z,22.70
2017-08-01T00:14:10.720Z,22.60
2017-08-01T00:16:38.479Z,22.50
2017-08-01T00:19:06.016Z,22.40
2017-08-01T00:21:33.569Z,22.40
2017-08-01T00:24:01.148Z,22.30
2017-08-01T00:26:28.689Z,22.30
2017-08-01T00:28:56.297Z,22.30
2017-08-01T00:31:23.840Z,22.30
2017-08-01T00:33:51.517Z,22.20
2017-08-01T00:36:19.111Z,22.20
2017-08-01T00:38:47.418Z,22.10
2017-08-01T00:41:14.959Z,22.10
2017-08-01T00:43:42.554Z,22.10
2017-08-01T00:46:10.090Z,22.10
2017-08-01T00:48:37.642Z,22.10
2017-08-01T00:51:05.306Z,22.00
2017-08-01T00:53:32.848Z,22.00
2017-08-01T00:56:00.425Z,22.00
2017-08-01T00:58:27.999Z,21.90
2017-08-01T01:00:55.632Z,22.00
2017-08-01T01:03:23.230Z,21.90
2017-08-01T01:05:50.777Z,21.90
2017-08-01T01:08:18.325Z,21.80
2017-08-01T01:10:45.908Z,21.80
2017-08-01T01:13:13.435Z,21.90
2017-08-01T01:15:40.992Z,21.90
2017-08-01T01:18:08.554Z,21.90
2017-08-01T01:20:36.111Z,22.00
2017-08-01T01:23:03.688Z,22.00
2017-08-01T01:25:31.239Z,22.00
2017-08-01T01:27:58.828Z,22.00
2017-08-01T01:30:26.405Z,22.00
2017-08-01T01:32:54.721Z,22.00
2017-08-01T01:35:22.310Z,21.90
2017-08-01T01:37:49.859Z,21.90
2017-08-01T01:40:17.449Z,21.90
2017-08-01T01:42:45.786Z,21.80
2017-08-01T01:45:13.328Z,21.80
2017-08-01T01:47:40.928Z,21.80
2017-08-01T01:50:08.464Z,21.80
2017-08-01T01:52:36.009Z,21.70
2017-08-01T01:55:03.579Z,21.70
2017-08-01T01:57:31.161Z,21.70
2017-08-01T01:59:59.285Z,21.70
2017-08-01T02:02:26.976Z,21.70
2017-08-01T02:04:54.603Z,21.70
2017-08-01T02:07:22.199Z,21.80
2017-08-01T02:09:49.752Z,21.80
2017-08-01T02:12:17.329Z,21.70
2017-08-01T02:14:44.882Z,21.60
2017-08-01T02:17:12.449Z,21.70
2017-08-01T02:19:40.794Z,21.70
2017-08-01T02:22:08.337Z,21.70
2017-08-01T02:24:35.881Z,21.80
2017-08-01T02:27:03.458Z,21.90
2017-08-01T02:29:30.995Z,21.90
2017-08-01T02:31:58.592Z,22.00
2017-08-01T02:34:26.207Z,22.10
2017-08-01T02:36:53.742Z,22.10
2017-08-01T02:39:22.069Z,21.80
2017-08-01T02:41:49.625Z,21.90
2017-08-01T02:44:17.222Z,21.80
2017-08-01T02:46:45.574Z,21.70
2017-08-01T02:49:13.122Z,21.60
2017-08-01T02:51:40.701Z,21.60
2017-08-01T02:54:08.262Z,21.60
2017-08-01T02:56:35.813Z,21.50
2017-08-01T02:59:03.403Z,21.50
2017-08-01T03:01:31.720Z,21.40
2017-08-01T03:03:59.304Z,21.40
2017-08-01T03:06:26.853Z,21.40
2017-08-01T03:08:54.431Z,21.40
2017-08-01T03:11:21.973Z,21.30
2017-08-01T03:13:49.692Z,21.30
2017-08-01T03:16:17.278Z,21.30
2017-08-01T03:18:44.849Z,21.30
2017-08-01T03:21:12.510Z,21.30
2017-08-01T03:23:40.061Z,21.20
2017-08-01T03:26:07.647Z,21.20
2017-08-01T03:28:35.197Z,21.10
2017-08-01T03:31:02.745Z,21.10
2017-08-01T03:33:30.329Z,21.10
2017-08-01T03:35:57.883Z,21.00
2017-08-01T03:38:25.496Z,21.00
2017-08-01T03:40:53.044Z,21.00
2017-08-01T03:43:20.607Z,21.00
2017-08-01T03:45:48.184Z,20.90
2017-08-01T03:48:15.742Z,20.90
2017-08-01T03:50:43.287Z,21.00
2017-08-01T03:53:10.978Z,20.90
2017-08-01T03:55:38.517Z,21.00
2017-08-01T03:58:06.166Z,20.90
2017-08-01T04:00:33.826Z,21.00
2017-08-01T04:03:01.460Z,20.90
2017-08-01T04:05:29.157Z,20.90
2017-08-01T04:07:56.753Z,20.90
2017-08-01T04:10:24.431Z,20.90
2017-08-01T04:12:52.779Z,20.90
2017-08-01T04:15:20.488Z,20.90
2017-08-01T04:17:48.104Z,20.90
2017-08-01T04:20:15.768Z,20.90
2017-08-01T04:22:43.321Z,20.90
2017-08-01T04:25:10.911Z,20.90
2017-08-01T04:27:38.508Z,20.90
2017-08-01T04:30:06.102Z,20.90
2017-08-01T04:32:33.671Z,20.90
2017-08-01T04:35:01.378Z,20.90
2017-08-01T04:37:28.918Z,20.90
2017-08-01T04:39:56.691Z,20.80
2017-08-01T04:42:24.236Z,20.90
2017-08-01T04:45:03.635Z,20.90
2017-08-01T04:47:31.188Z,20.90
2017-08-01T04:49:59.121Z,20.90
2017-08-01T04:52:26.694Z,20.90
2017-08-01T04:54:54.232Z,20.90
2017-08-01T04:57:21.808Z,21.00
2017-08-01T04:59:49.369Z,21.00
2017-08-01T05:02:16.950Z,20.90
2017-08-01T05:04:44.489Z,21.00
2017-08-01T05:07:12.205Z,21.00
2017-08-01T05:09:39.749Z,21.00
2017-08-01T05:12:08.057Z,20.90
2017-08-01T05:14:35.630Z,20.90
2017-08-01T05:17:03.189Z,20.90
2017-08-01T05:19:30.737Z,20.90
2017-08-01T05:21:58.373Z,21.00
2017-08-01T05:24:25.940Z,21.00
2017-08-01T05:26:53.522Z,21.00
2017-08-01T05:29:21.076Z,21.10
2017-08-01T05:31:48.608Z,21.10
2017-08-01T05:34:16.222Z,21.10
2017-08-01T05:36:44.054Z,21.20
2017-08-01T05:39:11.589Z,21.20
2017-08-01T05:41:39.160Z,21.30
2017-08-01T05:44:06.702Z,21.40
2017-08-01T05:46:34.255Z,21.50
2017-08-01T05:49:01.905Z,21.50
2017-08-01T05:51:30.249Z,21.60
2017-08-01T05:53:57.959Z,21.60
2017-08-01T05:56:25.634Z,21.80
2017-08-01T05:58:53.210Z,21.80
2017-08-01T06:01:20.790Z,21.80
2017-08-01T06:03:48.355Z,21.90
2017-08-01T06:06:15.944Z,21.60
2017-08-01T06:08:44.258Z,21.60
2017-08-01T06:11:11.806Z,21.60
2017-08-01T06:13:39.407Z,21.70
2017-08-01T06:16:06.946Z,21.70
2017-08-01T06:18:34.521Z,21.80
2017-08-01T06:21:02.133Z,21.90
2017-08-01T06:23:29.712Z,21.80
2017-08-01T06:25:57.300Z,21.90
2017-08-01T06:28:24.881Z,22.00
2017-08-01T06:30:53.208Z,22.00
2017-08-01T06:33:20.755Z,21.90
2017-08-01T06:35:48.340Z,21.80
2017-08-01T06:38:15.885Z,21.90
2017-08-01T06:40:43.460Z,22.00
2017-08-01T06:43:11.003Z,22.10
2017-08-01T06:45:38.586Z,22.20
2017-08-01T06:48:06.170Z,22.40
2017-08-01T06:50:34.577Z,22.80
2017-08-01T06:53:02.118Z,22.80
2017-08-01T06:55:29.719Z,22.70
2017-08-01T06:57:57.263Z,23.00
2017-08-01T07:00:24.813Z,23.10
2017-08-01T07:02:52.402Z,23.00
2017-08-01T07:05:19.943Z,23.00
2017-08-01T07:07:47.516Z,22.90
2017-08-01T07:10:15.069Z,23.20
2017-08-01T07:12:42.758Z,23.70
2017-08-01T07:15:10.301Z,24.10
2017-08-01T07:17:37.894Z,25.40
2017-08-01T07:20:05.685Z,27.20
2017-08-01T07:22:33.241Z,28.90
2017-08-01T07:25:00.980Z,29.40
2017-08-01T07:27:28.518Z,31.90
2017-08-01T07:29:56.835Z,32.70
2017-08-01T07:32:24.422Z,32.70
2017-08-01T07:34:52.001Z,33.50
2017-08-01T07:37:19.641Z,34.20
2017-08-01T07:39:47.239Z,34.70
2017-08-01T07:42:15.603Z,31.60
2017-08-01T07:44:43.147Z,31.50
2017-08-01T07:47:10.701Z,28.90
2017-08-01T07:49:38.282Z,27.90
2017-08-01T07:52:06.659Z,28.50
2017-08-01T07:54:34.281Z,28.50
2017-08-01T07:57:01.818Z,28.90
2017-08-01T07:59:29.401Z,28.40
2017-08-01T08:01:56.992Z,27.80
2017-08-01T08:04:25.402Z,28.10
2017-08-01T08:06:53.010Z,28.10
2017-08-01T08:09:20.582Z,28.30
2017-08-01T08:11:48.121Z,28.10
2017-08-01T08:14:15.717Z,28.00
2017-08-01T08:16:43.274Z,28.00
2017-08-01T08:19:11.575Z,27.50
2017-08-01T08:24:13.661Z,27.20
2017-08-01T08:26:41.229Z,27.80
2017-08-01T08:29:08.777Z,28.00
2017-08-01T08:31:36.377Z,28.10
2017-08-01T08:34:03.963Z,27.40
2017-08-01T08:36:32.260Z,27.30
2017-08-01T08:38:59.815Z,27.30
2017-08-01T08:41:27.382Z,27.10
2017-08-01T08:43:54.935Z,27.30
2017-08-01T08:46:22.645Z,27.40
2017-08-01T08:48:50.192Z,27.60
2017-08-01T08:51:17.790Z,27.70
2017-08-01T08:53:46.096Z,27.80
2017-08-01T08:56:13.637Z,27.80
2017-08-01T08:58:41.210Z,27.90
2017-08-01T09:01:08.770Z,28.20
2017-08-01T09:03:36.355Z,28.00
2017-08-01T09:06:03.896Z,28.10
2017-08-01T09:08:31.494Z,27.90
2017-08-01T09:10:59.112Z,27.90
2017-08-01T09:13:26.659Z,27.90
2017-08-01T09:15:54.325Z,28.20
2017-08-01T09:18:21.862Z,28.70
2017-08-01T09:20:49.398Z,28.60
2017-08-01T09:23:17.801Z,28.50
2017-08-01T09:25:45.373Z,28.50
2017-08-01T09:28:13.045Z,28.60
2017-08-01T09:30:40.741Z,28.80
2017-08-01T09:33:08.283Z,28.90
2017-08-01T09:35:35.877Z,29.30
2017-08-01T09:38:04.181Z,29.90
2017-08-01T09:40:31.854Z,29.80
2017-08-01T09:42:59.553Z,30.30
2017-08-01T09:45:27.096Z,30.60
2017-08-01T09:47:54.676Z,30.70
2017-08-01T09:50:23.109Z,31.00
2017-08-01T09:52:50.705Z,31.00
2017-08-01T09:55:19.042Z,31.20
2017-08-01T09:57:46.591Z,31.20
2017-08-01T10:00:14.158Z,31.40
2017-08-01T10:02:41.692Z,31.50
2017-08-01T10:05:09.297Z,31.60
2017-08-01T10:07:36.838Z,31.70
2017-08-01T10:10:04.388Z,31.90
2017-08-01T10:12:32.041Z,32.00
2017-08-01T10:14:59.585Z,32.00
2017-08-01T10:17:27.180Z,31.80
2017-08-01T10:19:54.750Z,31.40
2017-08-01T10:22:22.331Z,31.30
2017-08-01T10:24:50.065Z,31.60
2017-08-01T10:27:17.781Z,31.90
2017-08-01T10:29:45.335Z,32.30
2017-08-01T10:32:13.728Z,32.40
2017-08-01T10:34:41.297Z,32.40
2017-08-01T10:37:08.824Z,32.30
2017-08-01T10:39:37.132Z,32.40
2017-08-01T10:42:04.730Z,32.40
2017-08-01T10:44:32.271Z,32.80
2017-08-01T10:46:59.820Z,32.70
2017-08-01T10:49:27.388Z,32.70
2017-08-01T10:51:54.930Z,32.70
2017-08-01T10:54:22.508Z,32.80
2017-08-01T10:56:50.066Z,32.80
2017-08-01T10:59:17.693Z,32.70
2017-08-01T11:01:45.381Z,32.40
2017-08-01T11:04:12.928Z,32.40
2017-08-01T11:06:40.575Z,32.50
2017-08-01T11:09:08.148Z,32.70
2017-08-01T11:11:35.768Z,32.80
2017-08-01T11:14:03.398Z,32.40
2017-08-01T11:16:30.978Z,32.30
2017-08-01T11:18:59.312Z,32.30
2017-08-01T11:21:26.866Z,32.30
2017-08-01T11:23:54.528Z,32.00
2017-08-01T11:26:22.085Z,32.10
2017-08-01T11:28:49.689Z,32.00
2017-08-01T11:31:18.307Z,31.90
2017-08-01T11:33:45.836Z,31.90
2017-08-01T11:36:14.101Z,31.90
2017-08-01T11:38:42.451Z,32.00
2017-08-01T11:41:09.995Z,32.00
2017-08-01T11:43:37.591Z,32.20
2017-08-01T11:46:05.936Z,32.40
2017-08-01T11:48:33.517Z,32.50
2017-08-01T11:51:01.097Z,32.50
2017-08-01T11:53:29.452Z,31.10
2017-08-01T11:55:57.033Z,32.60
2017-08-01T11:58:24.736Z,32.50
2017-08-01T12:00:52.294Z,32.50
2017-08-01T12:03:19.885Z,32.60
2017-08-01T12:05:47.462Z,32.40
2017-08-01T12:08:15.778Z,32.40
2017-08-01T12:10:43.347Z,32.40
2017-08-01T12:13:10.884Z,32.40
2017-08-01T12:15:38.469Z,32.30
2017-08-01T12:18:06.027Z,32.50
2017-08-01T12:20:33.569Z,32.50
2017-08-01T12:23:01.149Z,32.50
2017-08-01T12:25:28.689Z,32.70
2017-08-01T12:27:56.279Z,32.60
2017-08-01T12:30:23.827Z,32.60
2017-08-01T12:32:51.438Z,32.70
2017-08-01T12:35:19.021Z,32.70
2017-08-01T12:37:46.590Z,32.70
2017-08-01T12:40:14.167Z,32.70
2017-08-01T12:42:41.710Z,32.60
2017-08-01T12:45:09.258Z,32.60
2017-08-01T12:47:36.834Z,32.70
2017-08-01T12:50:04.362Z,32.70
2017-08-01T12:52:31.915Z,32.60
2017-08-01T12:54:59.482Z,32.50
2017-08-01T12:57:27.122Z,32.50
2017-08-01T12:59:54.704Z,32.40
2017-08-01T13:02:22.256Z,32.50
2017-08-01T13:04:49.850Z,32.50
2017-08-01T13:07:17.389Z,32.70
2017-08-01T13:09:44.939Z,32.60
2017-08-01T13:12:12.525Z,32.60
2017-08-01T13:14:40.082Z,32.70
2017-08-01T13:17:07.629Z,32.60
2017-08-01T13:19:35.301Z,32.70
2017-08-01T13:22:02.923Z,32.90
2017-08-01T13:24:30.468Z,32.70
2017-08-01T13:26:58.061Z,32.60
2017-08-01T13:29:25.606Z,32.40
2017-08-01T13:31:53.152Z,32.20
2017-08-01T13:34:20.719Z,32.20
2017-08-01T13:36:48.326Z,32.30
2017-08-01T13:39:15.903Z,32.30
2017-08-01T13:41:44.217Z,32.60
2017-08-01T13:44:11.776Z,32.60
2017-08-01T13:46:39.353Z,32.50
2017-08-01T13:49:06.890Z,32.40
2017-08-01T13:51:34.432Z,32.50
2017-08-01T13:54:02.068Z,32.40
2017-08-01T13:56:30.383Z,32.70
2017-08-01T13:58:57.957Z,32.60
2017-08-01T14:01:25.497Z,32.60
2017-08-01T14:03:53.030Z,32.50
2017-08-01T14:06:20.602Z,32.40
2017-08-01T14:08:48.158Z,32.30
2017-08-01T14:11:15.738Z,32.30
2017-08-01T14:13:43.287Z,32.20
2017-08-01T14:16:10.861Z,32.00
2017-08-01T14:18:38.428Z,32.00
2017-08-01T14:21:05.961Z,32.00
2017-08-01T14:23:33.532Z,31.90
2017-08-01T14:26:01.084Z,31.70
2017-08-01T14:28:28.716Z,31.80
2017-08-01T14:30:56.252Z,31.90
2017-08-01T14:33:24.745Z,32.20
2017-08-01T14:35:52.449Z,32.20
2017-08-01T14:38:20.013Z,32.30
2017-08-01T14:40:49.593Z,32.30
2017-08-01T14:43:17.169Z,32.30
2017-08-01T14:45:44.736Z,32.20
2017-08-01T14:48:12.325Z,32.10
2017-08-01T14:50:40.779Z,31.50
2017-08-01T14:53:08.393Z,31.50
2017-08-01T14:55:35.944Z,31.10
2017-08-01T14:58:03.568Z,30.50
2017-08-01T15:00:31.194Z,30.30
2017-08-01T15:02:58.746Z,29.80
2017-08-01T15:05:26.374Z,29.00
2017-08-01T15:07:53.916Z,28.30
2017-08-01T15:10:22.226Z,27.90
2017-08-01T15:12:49.802Z,27.90
2017-08-01T15:15:17.346Z,27.90
2017-08-01T15:17:44.940Z,27.90
2017-08-01T15:20:12.488Z,27.90
2017-08-01T15:22:40.029Z,27.90
2017-08-01T15:25:07.602Z,28.00
2017-08-01T15:27:35.153Z,27.90
2017-08-01T15:30:02.742Z,27.90
2017-08-01T15:32:30.289Z,27.80
2017-08-01T15:34:57.843Z,27.80
2017-08-01T15:37:25.438Z,27.80
2017-08-01T15:39:53.771Z,27.50
2017-08-01T15:42:21.305Z,27.50
2017-08-01T15:44:48.891Z,27.50
2017-08-01T15:47:16.447Z,27.30
2017-08-01T15:49:44.033Z,27.10
2017-08-01T15:52:11.578Z,26.90
2017-08-01T15:54:39.133Z,26.80
2017-08-01T15:57:06.729Z,26.80
2017-08-01T15:59:35.031Z,26.90
2017-08-01T16:02:02.601Z,26.90
2017-08-01T16:04:30.148Z,27.10
2017-08-01T16:06:57.749Z,27.70
2017-08-01T16:10:20.401Z,27.20
2017-08-01T16:12:48.064Z,27.20
2017-08-01T16:15:15.712Z,26.80
2017-08-01T16:17:43.311Z,26.50
2017-08-01T16:20:11.631Z,26.20
2017-08-01T16:22:39.237Z,26.20
2017-08-01T16:25:07.563Z,26.30
2017-08-01T16:27:35.118Z,26.30
2017-08-01T16:30:02.697Z,26.50
2017-08-01T16:32:30.283Z,26.10
2017-08-01T16:34:58.603Z,26.30
2017-08-01T16:37:26.157Z,26.30
2017-08-01T16:39:53.860Z,26.20
2017-08-01T16:42:21.428Z,26.10
2017-08-01T16:44:49.023Z,26.00
2017-08-01T16:47:16.573Z,26.00
2017-08-01T16:49:44.133Z,26.20
2017-08-01T16:52:11.716Z,26.20
2017-08-01T16:54:39.269Z,26.20
2017-08-01T16:57:06.855Z,26.40
2017-08-01T16:59:34.412Z,26.40
2017-08-01T17:02:02.001Z,26.40
2017-08-01T17:04:30.347Z,26.00
2017-08-01T17:06:57.984Z,26.00
2017-08-01T17:09:25.643Z,25.80
2017-08-01T17:11:53.181Z,25.50
2017-08-01T17:14:20.790Z,25.30
2017-08-01T17:16:48.361Z,25.30
2017-08-01T17:19:15.994Z,25.40
2017-08-01T17:21:43.636Z,25.50
2017-08-01T17:24:11.183Z,25.50
2017-08-01T17:26:38.784Z,25.60
2017-08-01T17:29:06.344Z,25.80
2017-08-01T17:31:33.898Z,25.80
2017-08-01T17:34:01.499Z,25.70
2017-08-01T17:36:29.047Z,25.50
2017-08-01T17:38:56.609Z,25.40
2017-08-01T17:41:24.953Z,25.30
2017-08-01T17:43:52.687Z,25.20
2017-08-01T17:46:20.259Z,25.20
2017-08-01T17:48:47.869Z,25.20
2017-08-01T17:51:15.435Z,25.00
2017-08-01T17:53:43.018Z,24.60
2017-08-01T17:56:10.578Z,24.00
2017-08-01T17:58:38.174Z,23.70
2017-08-01T18:01:05.803Z,23.60
2017-08-01T18:03:33.368Z,24.10
2017-08-01T18:06:01.064Z,24.00
2017-08-01T18:08:28.626Z,23.50
2017-08-01T18:10:57.048Z,23.00
2017-08-01T18:13:24.657Z,23.00
2017-08-01T18:15:52.310Z,23.20
2017-08-01T18:18:20.012Z,23.70
2017-08-01T18:20:47.726Z,23.80
2017-08-01T18:23:15.557Z,23.50
2017-08-01T18:25:43.288Z,23.20
2017-08-01T18:28:11.107Z,23.10
2017-08-01T18:30:38.788Z,23.20
2017-08-01T18:33:06.450Z,23.20
2017-08-01T18:35:34.372Z,23.10
2017-08-01T18:38:02.336Z,23.10
2017-08-01T18:40:30.209Z,23.10
2017-08-01T18:42:58.069Z,23.20
2017-08-01T18:45:25.932Z,23.00
2017-08-01T18:47:53.766Z,23.00
2017-08-01T18:50:21.866Z,22.90
2017-08-01T18:52:49.833Z,22.80
2017-08-01T18:55:17.904Z,22.80
2017-08-01T18:57:45.874Z,22.80
2017-08-01T19:00:13.838Z,22.80
2017-08-01T19:02:42.005Z,22.30
2017-08-01T19:05:09.979Z,22.20
2017-08-01T19:07:38.153Z,22.40
2017-08-01T19:10:06.120Z,22.10
2017-08-01T19:12:34.085Z,22.50
2017-08-01T19:15:01.955Z,22.40
2017-08-01T19:17:29.920Z,22.00
2017-08-01T19:19:57.887Z,21.80
2017-08-01T19:22:25.855Z,21.60
2017-08-01T19:24:53.929Z,22.00
2017-08-01T19:27:21.896Z,22.40
2017-08-01T19:29:49.862Z,22.40
2017-08-01T19:32:17.726Z,22.30
2017-08-01T19:34:45.591Z,22.30
2017-08-01T19:37:13.562Z,22.20
2017-08-01T19:39:41.523Z,22.00
2017-08-01T19:42:09.492Z,22.10
2017-08-01T19:44:37.459Z,21.80
2017-08-01T19:47:05.430Z,21.60
2017-08-01T19:49:33.398Z,21.30
2017-08-01T19:52:01.263Z,21.60
2017-08-01T19:54:29.192Z,21.40
2017-08-01T19:56:57.094Z,21.30
2017-08-01T19:59:25.162Z,21.30
2017-08-01T20:01:53.033Z,21.40
2017-08-01T20:04:20.893Z,21.70
2017-08-01T20:06:48.764Z,21.70
2017-08-01T20:09:16.728Z,21.80
2017-08-01T20:11:44.590Z,21.90
2017-08-01T20:14:12.560Z,22.00
2017-08-01T20:16:40.498Z,22.20
2017-08-01T20:19:08.443Z,22.10
2017-08-01T20:21:36.158Z,21.70
2017-08-01T20:24:03.824Z,21.50
2017-08-01T20:26:31.684Z,21.30
2017-08-01T20:28:59.323Z,21.20
2017-08-01T20:31:27.083Z,21.10
2017-08-01T20:33:54.650Z,21.10
2017-08-01T20:36:22.218Z,21.20
2017-08-01T20:38:49.799Z,21.20
2017-08-01T20:41:17.365Z,21.70
2017-08-01T20:43:44.969Z,22.00
2017-08-01T20:46:13.289Z,21.90
2017-08-01T20:48:40.860Z,21.90
2017-08-01T20:51:08.490Z,21.70
2017-08-01T20:53:36.034Z,21.30
2017-08-01T20:56:03.633Z,21.50
2017-08-01T20:58:31.192Z,21.50
2017-08-01T21:00:58.740Z,21.40
2017-08-01T21:03:26.351Z,21.30
2017-08-01T21:05:54.664Z,21.20
2017-08-01T21:08:22.216Z,21.20
2017-08-01T21:10:49.796Z,21.10
2017-08-01T21:13:17.386Z,20.90
2017-08-01T21:15:44.962Z,21.00
2017-08-01T21:18:13.283Z,21.00
2017-08-01T21:20:40.836Z,21.00
2017-08-01T21:23:08.382Z,21.00
2017-08-01T21:25:35.935Z,20.90
2017-08-01T21:28:03.556Z,20.70
2017-08-01T21:30:31.875Z,20.70
2017-08-01T21:32:59.425Z,20.70
2017-08-01T21:35:27.008Z,20.80
2017-08-01T21:37:54.791Z,20.80
2017-08-01T21:40:22.344Z,21.00
2017-08-01T21:42:50.004Z,21.10
2017-08-01T21:45:17.557Z,21.30
2017-08-01T21:47:45.192Z,21.40
2017-08-01T21:50:12.773Z,21.50
2017-08-01T21:52:40.337Z,21.50
2017-08-01T21:55:07.922Z,21.50
2017-08-01T21:57:36.289Z,21.60
2017-08-01T22:00:03.836Z,21.60
2017-08-01T22:02:31.387Z,21.30
2017-08-01T22:04:58.967Z,21.00
2017-08-01T22:07:26.535Z,20.90
2017-08-01T22:09:54.885Z,21.00
2017-08-01T22:12:22.445Z,20.90
2017-08-01T22:14:49.986Z,21.00
2017-08-01T22:17:17.561Z,21.50
2017-08-01T22:19:45.118Z,21.50
2017-08-01T22:22:12.774Z,21.30
2017-08-01T22:24:40.485Z,21.40
2017-08-01T22:27:08.038Z,21.30
2017-08-01T22:29:35.633Z,21.00
2017-08-01T22:32:03.180Z,21.20
2017-08-01T22:34:30.782Z,21.10
2017-08-01T22:36:58.457Z,21.20
2017-08-01T22:39:26.772Z,21.40
2017-08-01T22:41:54.517Z,21.40
2017-08-01T22:44:22.162Z,21.40
2017-08-01T22:46:50.474Z,21.60
2017-08-01T22:49:18.055Z,21.60
2017-08-01T22:51:45.597Z,21.40
2017-08-01T22:54:13.278Z,21.30
2017-08-01T22:56:40.812Z,21.10
2017-08-01T22:59:08.361Z,21.10
2017-08-01T23:01:35.943Z,21.20
2017-08-01T23:04:03.484Z,21.20
2017-08-01T23:06:31.078Z,21.20
2017-08-01T23:08:58.639Z,21.00
2017-08-01T23:11:26.182Z,21.10
2017-08-01T23:13:53.853Z,21.40
2017-08-01T23:16:21.420Z,21.40
2017-08-01T23:18:49.013Z,21.40
2017-08-01T23:21:16.585Z,21.00
2017-08-01T23:23:44.129Z,21.20
2017-08-01T23:26:11.734Z,21.30
2017-08-01T23:28:39.287Z,21.30
2017-08-01T23:31:06.880Z,21.20
2017-08-01T23:33:35.201Z,21.00
2017-08-01T23:36:02.768Z,21.00
2017-08-01T23:38:30.340Z,20.70
2017-08-01T23:40:57.903Z,20.60
2017-08-01T23:43:25.483Z,20.60
2017-08-01T23:45:53.029Z,20.70
2017-08-01T23:48:20.568Z,21.00
2017-08-01T23:50:48.178Z,21.00
2017-08-01T23:53:16.486Z,21.00
2017-08-01T23:55:44.147Z,21.00
2017-08-01T23:58:11.721Z,20.90
